createdAt,value
2023-04-21T00:01:59.220Z,9.60
2023-04-21T00:04:26.375Z,9.60
2023-04-21T00:06:53.254Z,9.60
2023-04-21T00:09:20.749Z,9.70
2023-04-21T00:11:48.012Z,9.60
2023-04-21T00:14:15.210Z,9.60
2023-04-21T00:16:42.133Z,9.60
2023-04-21T00:19:09.399Z,9.60
2023-04-21T00:21:37.310Z,9.50
2023-04-21T00:24:04.461Z,9.60
2023-04-21T00:26:31.300Z,9.50
2023-04-21T00:28:58.111Z,9.50
2023-04-21T00:31:25.021Z,9.50
2023-04-21T00:33:51.923Z,9.40
2023-04-21T00:36:18.864Z,9.40
2023-04-21T00:38:45.804Z,9.40
2023-04-21T00:41:12.590Z,9.30
2023-04-21T00:44:06.533Z,9.30
2023-04-21T00:46:34.511Z,9.30
2023-04-21T00:49:04.887Z,9.20
2023-04-21T00:51:34.299Z,9.20
2023-04-21T00:54:03.117Z,9.20
2023-04-21T00:56:32.944Z,9.10
2023-04-21T00:59:00.932Z,9.10
2023-04-21T01:01:34.347Z,9.10
2023-04-21T01:04:02.716Z,9.10
2023-04-21T01:06:32.160Z,9.10
2023-04-21T01:08:59.517Z,9.10
2023-04-21T01:11:26.805Z,9.10
2023-04-21T01:13:54.630Z,9.10
2023-04-21T01:16:23.218Z,9.10
2023-04-21T01:18:53.394Z,9.10
2023-04-21T01:21:21.869Z,9.10
2023-04-21T01:23:48.801Z,9.10
2023-04-21T01:26:19.489Z,9.10
2023-04-21T01:28:47.671Z,9.20
2023-04-21T01:31:16.100Z,9.20
2023-04-21T01:33:43.318Z,9.20
2023-04-21T01:36:10.860Z,9.20
2023-04-21T01:38:41.956Z,9.20
2023-04-21T01:41:10.817Z,9.20
2023-04-21T01:43:38.444Z,9.20
2023-04-21T01:46:06.622Z,9.20
2023-04-21T01:48:33.681Z,9.20
2023-04-21T01:51:00.507Z,9.20
2023-04-21T01:53:27.277Z,9.30
2023-04-21T01:55:54.178Z,9.20
2023-04-21T01:58:21.962Z,9.20
2023-04-21T02:00:48.810Z,9.20
2023-04-21T02:03:15.906Z,9.20
2023-04-21T02:05:42.779Z,9.20
2023-04-21T02:08:09.668Z,9.20
2023-04-21T02:10:37.023Z,9.20
2023-04-21T02:13:03.965Z,9.20
2023-04-21T02:15:31.270Z,9.20
2023-04-21T02:17:58.244Z,9.20
2023-04-21T02:20:25.155Z,9.20
2023-04-21T02:22:51.967Z,9.20
2023-04-21T02:25:20.112Z,9.20
2023-04-21T02:27:46.950Z,9.20
2023-04-21T02:30:14.073Z,9.20
2023-04-21T02:32:41.057Z,9.10
2023-04-21T02:35:08.285Z,9.10
2023-04-21T02:37:35.366Z,9.10
2023-04-21T02:40:02.141Z,9.10
2023-04-21T02:42:28.949Z,9.00
2023-04-21T02:44:55.747Z,9.10
2023-04-21T02:47:22.600Z,9.10
2023-04-21T02:49:49.455Z,9.10
2023-04-21T02:52:16.493Z,9.10
2023-04-21T02:54:43.248Z,9.10
2023-04-21T02:57:10.206Z,9.10
2023-04-21T02:59:37.010Z,9.10
2023-04-21T03:02:04.131Z,9.00
2023-04-21T03:04:33.860Z,9.00
2023-04-21T03:07:00.843Z,9.00
2023-04-21T03:09:27.708Z,9.00
2023-04-21T03:11:54.486Z,9.00
2023-04-21T03:14:21.322Z,9.00
2023-04-21T03:16:48.902Z,9.00
2023-04-21T03:19:15.749Z,8.90
2023-04-21T03:21:42.519Z,8.90
2023-04-21T03:24:09.383Z,8.90
2023-04-21T03:26:36.650Z,8.90
2023-04-21T03:29:03.665Z,8.80
2023-04-21T03:31:30.839Z,8.90
2023-04-21T03:33:57.646Z,8.80
2023-04-21T03:36:24.586Z,8.80
2023-04-21T03:38:51.397Z,8.80
2023-04-21T03:41:18.380Z,8.90
2023-04-21T03:43:45.250Z,8.80
2023-04-21T03:46:19.610Z,8.80
2023-04-21T03:48:47.421Z,8.90
2023-04-21T03:51:14.625Z,8.90
2023-04-21T03:53:42.323Z,8.90
2023-04-21T03:56:09.419Z,8.90
2023-04-21T03:58:37.197Z,8.90
2023-04-21T04:01:07.518Z,8.90
2023-04-21T04:03:34.738Z,8.80
2023-04-21T04:06:03.978Z,8.90
2023-04-21T04:08:31.301Z,8.80
2023-04-21T04:10:58.273Z,8.80
2023-04-21T04:13:26.514Z,8.80
2023-04-21T04:15:53.638Z,8.70
2023-04-21T04:18:21.063Z,8.70
2023-04-21T04:20:47.886Z,8.60
2023-04-21T04:23:14.673Z,8.60
2023-04-21T04:25:42.647Z,8.50
2023-04-21T04:28:09.658Z,8.50
2023-04-21T04:30:36.952Z,8.50
2023-04-21T04:33:03.926Z,8.50
2023-04-21T04:35:30.929Z,8.40
2023-04-21T04:37:57.862Z,8.40
2023-04-21T04:40:25.055Z,8.40
2023-04-21T04:42:52.731Z,8.40
2023-04-21T04:45:21.424Z,8.40
2023-04-21T04:47:49.909Z,8.40
2023-04-21T04:50:16.873Z,8.40
2023-04-21T04:52:46.922Z,8.40
2023-04-21T04:55:14.324Z,8.40
2023-04-21T04:57:41.308Z,8.40
2023-04-21T05:00:11.355Z,8.40
2023-04-21T05:02:39.033Z,8.40
2023-04-21T05:05:07.404Z,8.40
2023-04-21T05:07:35.127Z,8.50
2023-04-21T05:10:04.169Z,8.50
2023-04-21T05:12:34.620Z,8.50
2023-04-21T05:15:01.511Z,8.50
2023-04-21T05:17:31.199Z,8.60
2023-04-21T05:19:58.296Z,8.70
2023-04-21T05:22:25.925Z,8.70
2023-04-21T05:24:53.227Z,8.80
2023-04-21T05:27:20.065Z,8.90
2023-04-21T05:29:46.885Z,8.90
2023-04-21T05:32:14.390Z,9.00
2023-04-21T05:34:41.228Z,9.00
2023-04-21T05:37:10.179Z,9.10
2023-04-21T05:39:36.984Z,9.10
2023-04-21T05:42:04.110Z,9.10
2023-04-21T05:44:31.066Z,9.20
2023-04-21T05:46:58.000Z,9.20
2023-04-21T05:49:24.851Z,9.30
2023-04-21T05:51:51.623Z,9.40
2023-04-21T05:54:18.811Z,9.50
2023-04-21T05:56:47.334Z,9.40
2023-04-21T05:59:14.552Z,9.60
2023-04-21T06:01:41.582Z,9.60
2023-04-21T06:04:08.706Z,9.60
2023-04-21T06:06:36.053Z,9.60
2023-04-21T06:09:03.065Z,9.70
2023-04-21T06:11:29.884Z,9.80
2023-04-21T06:13:58.793Z,9.90
2023-04-21T06:16:26.466Z,10.10
2023-04-21T06:18:53.509Z,10.10
2023-04-21T06:21:20.795Z,10.30
2023-04-21T06:23:47.677Z,10.40
2023-04-21T06:26:14.723Z,10.50
2023-04-21T06:28:41.634Z,10.60
2023-04-21T06:31:09.837Z,10.80
2023-04-21T06:33:37.362Z,10.90
2023-04-21T06:36:04.552Z,10.90
2023-04-21T06:38:31.486Z,11.00
2023-04-21T06:40:58.606Z,11.00
2023-04-21T06:43:25.776Z,11.00
2023-04-21T06:45:52.987Z,11.00
2023-04-21T06:48:19.842Z,11.10
2023-04-21T06:50:46.707Z,11.20
2023-04-21T06:53:13.886Z,11.20
2023-04-21T06:55:40.741Z,11.30
2023-04-21T06:58:07.574Z,11.30
2023-04-21T07:00:34.635Z,11.30
2023-04-21T07:03:01.867Z,11.30
2023-04-21T07:05:29.092Z,11.40
2023-04-21T07:07:59.994Z,11.40
2023-04-21T07:10:27.391Z,11.40
2023-04-21T07:12:54.549Z,11.50
2023-04-21T07:15:21.969Z,11.50
2023-04-21T07:17:50.558Z,11.50
2023-04-21T07:20:18.842Z,11.60
2023-04-21T07:22:45.928Z,11.60
2023-04-21T07:25:12.813Z,11.60
2023-04-21T07:27:40.026Z,11.70
2023-04-21T07:30:07.863Z,11.70
2023-04-21T07:32:35.165Z,11.70
2023-04-21T07:35:03.158Z,11.80
2023-04-21T07:37:30.959Z,11.80
2023-04-21T07:39:57.873Z,11.80
2023-04-21T07:42:26.744Z,11.80
2023-04-21T07:44:54.867Z,11.90
2023-04-21T07:47:21.892Z,12.00
2023-04-21T07:49:48.820Z,12.00
2023-04-21T07:52:15.909Z,12.10
2023-04-21T07:54:42.711Z,12.20
2023-04-21T07:57:09.779Z,12.30
2023-04-21T07:59:36.752Z,12.50
2023-04-21T08:02:04.152Z,12.80
2023-04-21T08:04:31.418Z,13.00
2023-04-21T08:06:59.114Z,13.10
2023-04-21T08:09:26.967Z,13.20
2023-04-21T08:11:55.304Z,13.30
2023-04-21T08:14:22.363Z,13.40
2023-04-21T08:16:49.528Z,13.50
2023-04-21T08:19:16.622Z,13.70
2023-04-21T08:21:43.658Z,13.80
2023-04-21T08:24:10.595Z,14.00
2023-04-21T08:26:37.802Z,14.10
2023-04-21T08:29:07.445Z,14.00
2023-04-21T08:31:34.552Z,14.00
2023-04-21T08:34:03.013Z,14.10
2023-04-21T08:36:31.741Z,14.20
2023-04-21T08:38:59.120Z,14.20
2023-04-21T08:41:26.716Z,14.20
2023-04-21T08:43:53.749Z,14.30
2023-04-21T08:46:21.596Z,14.30
2023-04-21T08:48:48.593Z,14.50
2023-04-21T08:51:21.395Z,14.50
2023-04-21T08:53:48.329Z,14.70
2023-04-21T08:56:15.308Z,14.90
2023-04-21T08:58:42.233Z,15.10
2023-04-21T09:01:09.340Z,15.40
2023-04-21T09:03:36.755Z,15.70
2023-04-21T09:06:06.324Z,15.80
2023-04-21T09:08:35.091Z,15.80
2023-04-21T09:11:02.316Z,16.00
2023-04-21T09:13:32.176Z,16.10
2023-04-21T09:16:00.005Z,16.10
2023-04-21T09:18:35.136Z,16.10
2023-04-21T09:21:14.016Z,16.10
2023-04-21T09:23:48.849Z,16.20
2023-04-21T09:26:17.584Z,16.10
2023-04-21T09:28:46.066Z,16.10
2023-04-21T09:31:21.205Z,16.10
2023-04-21T09:33:58.858Z,16.00
2023-04-21T09:36:29.796Z,16.00
2023-04-21T09:41:32.904Z,16.10
2023-04-21T09:44:04.968Z,16.20
2023-04-21T09:46:36.853Z,16.30
2023-04-21T09:49:04.520Z,16.40
2023-04-21T09:52:05.356Z,16.40
2023-04-21T09:54:30.072Z,16.60
2023-04-21T09:57:03.612Z,16.70
2023-04-21T09:59:35.026Z,16.80
2023-04-21T10:02:09.544Z,16.90
2023-04-21T10:04:38.624Z,16.90
2023-04-21T10:07:07.166Z,17.00
2023-04-21T10:09:40.477Z,17.10
2023-04-21T10:12:09.618Z,17.60
2023-04-21T10:14:36.906Z,17.90
2023-04-21T10:17:04.749Z,18.20
2023-04-21T10:19:36.303Z,18.40
2023-04-21T10:22:03.271Z,18.60
2023-04-21T10:24:31.009Z,18.90
2023-04-21T10:27:02.221Z,19.00
2023-04-21T10:29:40.045Z,19.20
2023-04-21T10:32:38.987Z,19.20
2023-04-21T10:35:13.640Z,19.40
2023-04-21T10:37:42.471Z,19.60
2023-04-21T10:40:44.399Z,19.90
2023-04-21T10:43:48.429Z,20.20
2023-04-21T10:46:35.613Z,20.70
2023-04-21T10:49:11.183Z,20.90
2023-04-21T10:52:00.254Z,20.90
2023-04-21T10:54:29.855Z,21.00
2023-04-21T10:56:58.938Z,21.10
2023-04-21T10:59:27.161Z,21.30
2023-04-21T11:01:55.107Z,21.40
2023-04-21T11:04:23.370Z,21.70
2023-04-21T11:07:07.926Z,22.10
2023-04-21T11:09:37.327Z,22.10
2023-04-21T11:12:08.006Z,22.20
2023-04-21T11:14:36.965Z,22.30
2023-04-21T11:17:06.196Z,22.50
2023-04-21T11:19:33.150Z,22.80
2023-04-21T11:22:00.550Z,23.30
2023-04-21T11:24:27.496Z,23.50
2023-04-21T11:26:54.344Z,23.20
2023-04-21T11:29:22.266Z,23.00
2023-04-21T11:31:50.227Z,23.10
2023-04-21T11:34:21.413Z,23.60
2023-04-21T11:36:50.115Z,24.30
2023-04-21T11:39:21.821Z,24.80
2023-04-21T11:41:53.228Z,25.10
2023-04-21T11:44:48.087Z,25.00
2023-04-21T11:47:27.205Z,24.40
2023-04-21T11:49:58.875Z,23.70
2023-04-21T11:52:32.949Z,22.90
2023-04-21T11:55:03.689Z,22.30
2023-04-21T11:57:32.609Z,22.00
2023-04-21T12:00:01.376Z,22.00
2023-04-21T12:02:31.017Z,22.00
2023-04-21T12:05:10.086Z,21.90
2023-04-21T12:07:39.033Z,21.70
2023-04-21T12:10:16.787Z,21.90
2023-04-21T12:12:44.434Z,22.70
2023-04-21T12:15:13.078Z,23.40
2023-04-21T12:17:42.740Z,23.40
2023-04-21T12:20:10.203Z,23.00
2023-04-21T12:22:37.807Z,22.70
2023-04-21T12:25:05.845Z,22.40
2023-04-21T12:27:32.844Z,22.10
2023-04-21T12:29:59.670Z,22.30
2023-04-21T12:32:26.842Z,22.10
2023-04-21T12:34:53.764Z,22.00
2023-04-21T12:37:20.781Z,21.80
2023-04-21T12:39:47.712Z,21.70
2023-04-21T12:42:14.722Z,22.10
2023-04-21T12:44:41.604Z,22.50
2023-04-21T12:47:08.508Z,22.50
2023-04-21T12:49:35.765Z,22.30
2023-04-21T12:52:05.499Z,22.00
2023-04-21T12:54:32.378Z,21.80
2023-04-21T12:56:59.313Z,21.60
2023-04-21T12:59:26.454Z,21.30
2023-04-21T13:01:53.425Z,21.10
2023-04-21T13:04:21.879Z,20.90
2023-04-21T13:06:48.938Z,20.80
2023-04-21T13:09:17.108Z,20.70
2023-04-21T13:11:46.281Z,20.70
2023-04-21T13:14:13.677Z,20.70
2023-04-21T13:16:41.118Z,20.70
2023-04-21T13:19:08.168Z,20.80
2023-04-21T13:21:35.039Z,20.80
2023-04-21T13:24:02.931Z,20.70
2023-04-21T13:26:33.545Z,20.70
2023-04-21T13:29:00.961Z,20.60
2023-04-21T13:31:28.026Z,20.80
2023-04-21T13:33:54.984Z,21.20
2023-04-21T13:36:22.036Z,21.20
2023-04-21T13:38:50.880Z,21.50
2023-04-21T13:41:17.795Z,21.70
2023-04-21T13:43:44.625Z,21.70
2023-04-21T13:46:13.000Z,21.80
2023-04-21T13:48:40.445Z,21.90
2023-04-21T13:51:08.081Z,21.70
2023-04-21T13:53:35.037Z,21.50
2023-04-21T13:56:05.096Z,21.20
2023-04-21T13:58:31.969Z,21.00
2023-04-21T14:00:58.775Z,20.90
2023-04-21T14:03:26.104Z,21.00
2023-04-21T14:05:53.048Z,21.40
2023-04-21T14:08:20.677Z,21.70
2023-04-21T14:10:47.809Z,21.60
2023-04-21T14:13:26.828Z,21.40
2023-04-21T14:16:01.635Z,21.50
2023-04-21T14:18:28.513Z,22.50
2023-04-21T14:20:55.403Z,23.50
2023-04-21T14:23:22.243Z,23.60
2023-04-21T14:25:49.144Z,23.20
2023-04-21T14:28:16.169Z,22.90
2023-04-21T14:30:43.175Z,22.60
2023-04-21T14:33:10.449Z,22.60
2023-04-21T14:35:37.770Z,23.00
2023-04-21T14:38:04.849Z,23.30
2023-04-21T14:40:31.794Z,23.30
2023-04-21T14:42:58.903Z,23.30
2023-04-21T14:45:26.090Z,23.70
2023-04-21T14:47:53.384Z,23.70
2023-04-21T14:50:20.408Z,23.30
2023-04-21T14:52:49.574Z,22.80
2023-04-21T14:55:17.253Z,22.50
2023-04-21T14:57:44.172Z,22.30
2023-04-21T15:00:12.198Z,22.00
2023-04-21T15:02:41.940Z,21.70
2023-04-21T15:05:09.340Z,21.60
2023-04-21T15:07:37.487Z,22.00
2023-04-21T15:10:04.638Z,22.90
2023-04-21T15:12:33.005Z,23.80
2023-04-21T15:15:00.997Z,24.30
2023-04-21T15:17:27.806Z,25.10
2023-04-21T15:19:54.756Z,25.50
2023-04-21T15:22:24.220Z,25.60
2023-04-21T15:24:54.317Z,25.50
2023-04-21T15:27:23.323Z,25.60
2023-04-21T15:29:50.223Z,25.80
2023-04-21T15:32:17.155Z,25.80
2023-04-21T15:34:44.001Z,25.40
2023-04-21T15:37:11.598Z,24.80
2023-04-21T15:39:38.892Z,24.60
2023-04-21T15:42:06.073Z,24.60
2023-04-21T15:44:34.003Z,24.80
2023-04-21T15:47:01.179Z,25.00
2023-04-21T15:49:28.194Z,25.10
2023-04-21T15:51:56.769Z,25.40
2023-04-21T15:54:24.474Z,25.60
2023-04-21T15:56:51.409Z,25.60
2023-04-21T15:59:18.432Z,25.40
2023-04-21T16:01:45.311Z,25.10
2023-04-21T16:04:14.668Z,24.60
2023-04-21T16:06:41.648Z,24.00
2023-04-21T16:09:08.806Z,23.50
2023-04-21T16:11:35.943Z,23.10
2023-04-21T16:14:03.013Z,22.70
2023-04-21T16:16:30.364Z,22.30
2023-04-21T16:18:57.394Z,22.10
2023-04-21T16:21:27.891Z,21.90
2023-04-21T16:23:57.115Z,21.70
2023-04-21T16:26:24.166Z,21.60
2023-04-21T16:28:54.244Z,21.40
2023-04-21T16:31:21.483Z,21.40
2023-04-21T16:33:49.445Z,21.20
2023-04-21T16:36:17.139Z,21.10
2023-04-21T16:38:44.056Z,21.00
2023-04-21T16:41:12.669Z,20.90
2023-04-21T16:43:39.614Z,20.80
2023-04-21T16:46:06.610Z,20.70
2023-04-21T16:48:33.706Z,20.70
2023-04-21T16:51:00.771Z,20.50
2023-04-21T16:53:27.714Z,20.40
2023-04-21T16:55:55.876Z,20.30
2023-04-21T16:58:24.525Z,20.20
2023-04-21T17:00:54.644Z,20.10
2023-04-21T17:03:21.894Z,20.10
2023-04-21T17:05:49.318Z,20.00
2023-04-21T17:08:16.843Z,19.90
2023-04-21T17:10:43.794Z,19.90
2023-04-21T17:13:10.647Z,19.80
2023-04-21T17:15:37.544Z,19.80
2023-04-21T17:18:05.196Z,19.80
2023-04-21T17:20:32.188Z,19.70
2023-04-21T17:23:01.002Z,19.70
2023-04-21T17:25:28.124Z,19.60
2023-04-21T17:27:54.974Z,19.50
2023-04-21T17:30:23.310Z,19.50
2023-04-21T17:32:53.313Z,19.40
2023-04-21T17:35:27.622Z,19.40
2023-04-21T17:37:54.558Z,19.30
2023-04-21T17:40:22.190Z,19.20
2023-04-21T17:42:49.025Z,19.30
2023-04-21T17:45:16.248Z,19.20
2023-04-21T17:47:43.413Z,19.10
2023-04-21T17:50:12.830Z,19.10
2023-04-21T17:52:40.288Z,19.00
2023-04-21T17:55:07.769Z,18.90
2023-04-21T17:57:34.920Z,18.90
2023-04-21T18:00:09.712Z,18.80
2023-04-21T18:02:37.154Z,18.80
2023-04-21T18:05:04.905Z,18.70
2023-04-21T18:07:31.968Z,18.60
2023-04-21T18:09:58.964Z,18.60
2023-04-21T18:12:25.971Z,18.50
2023-04-21T18:14:52.783Z,18.40
2023-04-21T18:17:19.760Z,18.40
2023-04-21T18:19:46.660Z,18.30
2023-04-21T18:22:13.721Z,18.30
2023-04-21T18:24:41.254Z,18.20
2023-04-21T18:27:10.774Z,18.10
2023-04-21T18:29:37.696Z,18.00
2023-04-21T18:32:04.768Z,18.00
2023-04-21T18:34:31.876Z,17.90
2023-04-21T18:36:58.747Z,17.90
2023-04-21T18:39:25.962Z,17.80
2023-04-21T18:41:53.260Z,17.80
2023-04-21T18:44:20.144Z,17.70
2023-04-21T18:46:47.286Z,17.60
2023-04-21T18:49:23.204Z,17.60
2023-04-21T18:51:50.169Z,17.60
2023-04-21T18:54:17.257Z,17.60
2023-04-21T18:56:44.170Z,17.60
2023-04-21T18:59:13.292Z,17.50
2023-04-21T19:01:41.431Z,17.50
2023-04-21T19:04:10.697Z,17.50
2023-04-21T19:06:38.141Z,17.40
2023-04-21T19:09:05.126Z,17.40
2023-04-21T19:11:33.460Z,17.30
2023-04-21T19:14:00.448Z,17.30
2023-04-21T19:16:28.338Z,17.20
2023-04-21T19:18:55.556Z,17.20
2023-04-21T19:21:22.436Z,17.20
2023-04-21T19:23:49.312Z,17.20
2023-04-21T19:26:16.505Z,17.20
2023-04-21T19:28:43.756Z,17.20
2023-04-21T19:31:10.691Z,17.20
2023-04-21T19:33:37.608Z,17.20
2023-04-21T19:36:04.734Z,17.20
2023-04-21T19:38:31.790Z,17.10
2023-04-21T19:40:58.717Z,17.20
2023-04-21T19:43:25.684Z,17.20
2023-04-21T19:45:52.655Z,17.30
2023-04-21T19:48:45.291Z,17.20
2023-04-21T19:51:17.183Z,17.20
2023-04-21T19:53:44.129Z,17.20
2023-04-21T19:56:11.566Z,17.10
2023-04-21T19:58:40.230Z,17.10
2023-04-21T20:01:09.130Z,17.10
2023-04-21T20:03:38.367Z,17.10
2023-04-21T20:06:05.807Z,17.00
2023-04-21T20:08:32.694Z,16.90
2023-04-21T20:10:59.550Z,16.80
2023-04-21T20:13:26.579Z,16.60
2023-04-21T20:15:53.516Z,16.50
2023-04-21T20:18:20.449Z,16.30
2023-04-21T20:20:47.330Z,16.20
2023-04-21T20:23:14.219Z,16.10
2023-04-21T20:25:41.143Z,16.10
2023-04-21T20:28:08.256Z,16.00
2023-04-21T20:30:35.523Z,15.90
2023-04-21T20:33:02.586Z,15.90
2023-04-21T20:35:34.319Z,15.80
2023-04-21T20:38:01.381Z,15.90
2023-04-21T20:40:28.337Z,15.90
2023-04-21T20:42:55.419Z,15.80
2023-04-21T20:45:22.442Z,15.80
2023-04-21T20:47:50.139Z,15.80
2023-04-21T20:50:17.464Z,15.70
2023-04-21T20:52:44.435Z,15.70
2023-04-21T20:55:11.583Z,15.70
2023-04-21T20:57:38.430Z,15.70
2023-04-21T21:00:06.096Z,15.60
2023-04-21T21:02:33.105Z,15.60
2023-04-21T21:05:00.437Z,15.60
2023-04-21T21:07:34.479Z,15.60
2023-04-21T21:10:01.381Z,15.60
2023-04-21T21:12:28.568Z,15.60
2023-04-21T21:14:55.361Z,15.50
2023-04-21T21:17:22.307Z,15.50
2023-04-21T21:19:49.553Z,15.50
2023-04-21T21:22:16.399Z,15.50
2023-04-21T21:24:43.339Z,15.50
2023-04-21T21:27:10.689Z,15.50
2023-04-21T21:29:38.196Z,15.50
2023-04-21T21:32:05.416Z,15.50
2023-04-21T21:34:32.329Z,15.40
2023-04-21T21:36:59.498Z,15.40
2023-04-21T21:39:27.226Z,15.40
2023-04-21T21:41:54.043Z,15.40
2023-04-21T21:44:21.378Z,15.30
2023-04-21T21:46:50.233Z,15.30
2023-04-21T21:49:17.199Z,15.20
2023-04-21T21:51:44.050Z,15.20
2023-04-21T21:54:10.965Z,15.20
2023-04-21T21:56:37.900Z,15.20
2023-04-21T21:59:04.844Z,15.20
2023-04-21T22:01:31.810Z,15.10
2023-04-21T22:03:58.927Z,15.10
2023-04-21T22:06:26.958Z,15.10
2023-04-21T22:08:53.813Z,15.10
2023-04-21T22:11:20.939Z,15.00
2023-04-21T22:13:47.748Z,15.00
2023-04-21T22:16:14.591Z,15.00
2023-04-21T22:18:41.517Z,15.00
2023-04-21T22:21:08.468Z,15.00
2023-04-21T22:57:13.843Z,13.50
2023-04-21T22:59:41.000Z,13.40
2023-04-21T23:02:08.235Z,13.20
2023-04-21T23:04:35.514Z,13.00
2023-04-21T23:07:02.713Z,12.90
2023-04-21T23:09:29.516Z,12.90
2023-04-21T23:11:56.483Z,12.90
2023-04-21T23:14:23.579Z,12.90
2023-04-21T23:16:50.620Z,12.90
2023-04-21T23:19:17.475Z,12.90
2023-04-21T23:21:44.502Z,12.90
2023-04-21T23:24:11.463Z,12.90
2023-04-21T23:26:38.740Z,12.90
2023-04-21T23:29:06.101Z,12.90
2023-04-21T23:31:33.210Z,12.90
2023-04-21T23:34:00.285Z,12.90
2023-04-21T23:36:27.276Z,12.90
2023-04-21T23:38:54.274Z,12.80
2023-04-21T23:41:21.542Z,12.80
2023-04-21T23:43:48.421Z,12.80
2023-04-21T23:46:15.535Z,12.80
2023-04-21T23:48:42.410Z,12.70
2023-04-21T23:51:09.438Z,12.70
2023-04-21T23:53:37.639Z,12.60
2023-04-21T23:56:04.507Z,12.60
2023-04-21T23:58:31.432Z,12.50
